Terminal Aerodrome Forecast
Issued by NWS Binghamton, NY

Home | Current Version | Previous Version | Text Only | Print | Product List | Glossary On
Versions: 1 2 3 4 5 6 7 8 9 10 11 12 13 14 15 16 17 18 19 20 21 22 23 24 25 26 27 28 29 30 31 32 33 34
000
FTUS41 KBGM 190500 CCA
TAFBGM
TAF COR
KBGM 190531Z 1906/2006 31007KT P6SM -FZDZ OVC008
      TEMPO 1906/1910 2SM -SN BR OVC005
     FM191000 32007KT P6SM OVC012
      TEMPO 1910/1914 -FZDZSN OVC008=

USA.gov is the U.S. government's official web portal to all federal, state and local government web resources and services.